Swastika, Canada
Current Conditions -  °F | °C
As of 8:00 PM on Friday 21 Nov 2014 (Local Time) from CYXR Reporting Station
Overcast Overcast  
Wind Chill: -16°   Ceiling: 18000
Heat Index: -8°   Visibility: 9mi
Dew Point: -11°   Wind: 16mph
Humidity: 79%   Direction: 190°S
Pressure: 30.1"   Gusts: NA
Location:  48.1°N, 80.1°W
Report Text: CYXR 220100Z AUTO 19014KT 9SM SCT110 OVC180 M08/M11 A3010 RMK SLP217
Loading
Personal Weather Stations






























Interactive Weather Map New forecast layout! Learn more

10-Day Weather Forecast

Advertisements
Track Severe Weather on mobile